createdAt,value
2019-05-14T00:00:25.219Z,3.35
2019-05-14T00:02:53.896Z,2.40
2019-05-14T00:05:22.581Z,3.87
2019-05-14T00:07:52.151Z,3.85
2019-05-14T00:10:22.330Z,2.95
2019-05-14T00:12:51.333Z,3.30
2019-05-14T00:15:32.299Z,3.50
2019-05-14T00:18:01.302Z,2.90
2019-05-14T00:20:31.457Z,3.02
2019-05-14T00:23:01.439Z,3.20
2019-05-14T00:25:32.904Z,2.90
2019-05-14T00:28:01.588Z,3.42
2019-05-14T00:30:31.746Z,2.33
2019-05-14T00:33:01.207Z,2.90
2019-05-14T00:35:32.036Z,3.60
2019-05-14T00:38:01.315Z,3.58
2019-05-14T00:40:31.471Z,3.15
2019-05-14T00:43:02.462Z,2.77
2019-05-14T00:45:31.280Z,3.10
2019-05-14T00:48:01.473Z,2.80
2019-05-14T00:50:31.672Z,3.25
2019-05-14T00:53:02.036Z,2.90
2019-05-14T00:55:31.658Z,3.75
2019-05-14T00:58:02.349Z,3.20
2019-05-14T01:00:31.291Z,2.90
2019-05-14T01:03:02.077Z,3.00
2019-05-14T01:05:32.378Z,2.77
2019-05-14T01:08:21.442Z,3.92
2019-05-14T01:10:51.189Z,3.12
2019-05-14T01:13:21.882Z,3.25
2019-05-14T01:15:52.105Z,3.40
2019-05-14T01:18:21.915Z,3.55
2019-05-14T01:20:51.962Z,3.15
2019-05-14T01:23:21.629Z,3.10
2019-05-14T01:25:51.744Z,2.95
2019-05-14T01:28:21.644Z,3.37
2019-05-14T01:30:52.155Z,3.42
2019-05-14T01:33:21.319Z,3.17
2019-05-14T01:35:51.399Z,3.58
2019-05-14T01:38:22.197Z,3.37
2019-05-14T01:40:52.405Z,3.20
2019-05-14T01:43:22.030Z,3.25
2019-05-14T01:45:52.398Z,3.20
2019-05-14T01:48:22.009Z,3.00
2019-05-14T01:50:53.154Z,3.33
2019-05-14T01:53:23.015Z,3.20
2019-05-14T01:55:52.150Z,2.77
2019-05-14T01:58:22.057Z,3.10
2019-05-14T02:00:52.388Z,3.35
2019-05-14T02:03:21.598Z,3.58
2019-05-14T02:05:52.110Z,3.22
2019-05-14T02:08:21.470Z,3.62
2019-05-14T02:10:52.434Z,3.40
2019-05-14T02:13:21.423Z,3.42
2019-05-14T02:15:52.084Z,3.40
2019-05-14T02:18:21.764Z,3.12
2019-05-14T02:20:52.176Z,2.95
2019-05-14T02:23:22.655Z,3.30
2019-05-14T02:25:51.887Z,3.25
2019-05-14T02:28:22.133Z,3.17
2019-05-14T02:30:57.512Z,3.10
2019-05-14T02:33:21.418Z,3.02
2019-05-14T02:35:50.053Z,3.02
2019-05-14T02:38:19.578Z,3.22
2019-05-14T02:40:49.400Z,2.92
2019-05-14T02:43:20.024Z,2.98
2019-05-14T02:46:02.086Z,3.37
2019-05-14T02:48:20.108Z,3.20
2019-05-14T02:50:50.083Z,3.37
2019-05-14T02:53:19.773Z,3.05
2019-05-14T02:55:49.966Z,3.20
2019-05-14T02:58:20.790Z,2.95
2019-05-14T03:00:49.366Z,3.15
2019-05-14T03:03:19.311Z,3.30
2019-05-14T03:05:49.579Z,3.17
2019-05-14T03:08:19.832Z,3.20
2019-05-14T03:10:50.137Z,4.20
2019-05-14T03:13:20.647Z,4.40
2019-05-14T03:15:49.958Z,4.80
2019-05-14T03:18:19.853Z,3.72
2019-05-14T03:20:50.117Z,3.77
2019-05-14T03:23:22.861Z,4.30
2019-05-14T03:25:49.725Z,4.20
2019-05-14T03:28:19.877Z,4.15
2019-05-14T03:30:52.712Z,4.17
2019-05-14T03:33:22.541Z,4.40
2019-05-14T03:35:58.474Z,3.47
2019-05-14T03:38:21.833Z,3.35
2019-05-14T03:40:50.485Z,3.55
2019-05-14T03:43:19.801Z,3.92
2019-05-14T03:45:49.648Z,2.95
2019-05-14T03:48:19.311Z,3.95
2019-05-14T03:50:49.456Z,3.58
2019-05-14T03:53:19.221Z,3.90
2019-05-14T03:55:50.432Z,4.72
2019-05-14T03:58:21.451Z,3.55
2019-05-14T04:00:55.478Z,4.50
2019-05-14T04:03:24.196Z,4.50
2019-05-14T04:05:52.896Z,4.37
2019-05-14T04:08:21.881Z,3.75
2019-05-14T04:10:54.293Z,3.87
2019-05-14T04:13:21.450Z,4.45
2019-05-14T04:15:50.142Z,3.87
2019-05-14T04:18:18.834Z,3.45
2019-05-14T04:20:50.141Z,3.60
2019-05-14T04:23:19.883Z,3.92
2019-05-14T04:25:49.889Z,4.72
2019-05-14T04:28:19.523Z,6.67
2019-05-14T04:30:49.309Z,4.58
2019-05-14T04:33:19.035Z,4.22
2019-05-14T04:35:49.053Z,4.85
2019-05-14T04:38:20.160Z,4.70
2019-05-14T04:40:49.559Z,6.00
2019-05-14T04:43:19.223Z,6.42
2019-05-14T04:45:49.857Z,7.28
2019-05-14T04:48:31.090Z,7.87
2019-05-14T04:50:50.155Z,5.83
2019-05-14T04:53:19.666Z,6.10
2019-05-14T04:55:49.451Z,5.92
2019-05-14T04:58:21.692Z,5.20
2019-05-14T05:00:50.088Z,4.60
2019-05-14T05:03:19.997Z,5.20
2019-05-14T05:05:49.960Z,4.30
2019-05-14T05:08:19.891Z,5.78
2019-05-14T05:10:49.665Z,5.85
2019-05-14T05:13:18.650Z,5.62
2019-05-14T05:15:48.668Z,4.67
2019-05-14T05:18:18.575Z,4.33
2019-05-14T05:20:50.228Z,4.72
2019-05-14T05:23:18.967Z,4.65
2019-05-14T05:25:49.046Z,4.45
2019-05-14T05:28:19.109Z,4.12
2019-05-14T05:30:49.088Z,5.90
2019-05-14T05:33:18.778Z,7.25
2019-05-14T05:35:48.659Z,4.42
2019-05-14T05:38:18.342Z,5.40
2019-05-14T05:40:48.540Z,5.85
2019-05-14T05:43:19.171Z,6.80
2019-05-14T05:45:48.600Z,5.72
2019-05-14T05:48:18.812Z,6.37
2019-05-14T05:50:48.426Z,4.05
2019-05-14T05:53:19.321Z,3.87
2019-05-14T05:55:48.474Z,4.12
2019-05-14T05:58:19.515Z,4.28
2019-05-14T06:00:49.733Z,4.17
2019-05-14T06:03:20.914Z,4.47
2019-05-14T06:05:49.443Z,3.50
2019-05-14T06:08:18.849Z,3.87
2019-05-14T06:10:49.018Z,3.67
2019-05-14T06:13:18.336Z,4.37
2019-05-14T06:15:49.490Z,3.33
2019-05-14T06:18:21.718Z,3.65
2019-05-14T06:20:49.440Z,3.65
2019-05-14T06:23:18.877Z,4.40
2019-05-14T06:25:49.111Z,4.20
2019-05-14T06:28:20.922Z,4.10
2019-05-14T06:30:49.431Z,4.20
2019-05-14T06:33:19.612Z,4.87
2019-05-14T06:35:48.742Z,6.05
2019-05-14T06:38:18.553Z,4.75
2019-05-14T06:40:48.994Z,4.20
2019-05-14T06:43:18.942Z,4.05
2019-05-14T06:45:49.604Z,6.70
2019-05-14T06:48:29.935Z,4.67
2019-05-14T06:50:50.482Z,4.33
2019-05-14T06:53:19.391Z,6.08
2019-05-14T06:55:48.499Z,5.15
2019-05-14T06:58:20.152Z,3.62
2019-05-14T07:00:49.527Z,3.87
2019-05-14T07:03:18.105Z,2.95
2019-05-14T07:05:49.100Z,3.62
2019-05-14T07:08:18.830Z,4.92
2019-05-14T07:10:48.566Z,5.92
2019-05-14T07:13:18.911Z,5.55
2019-05-14T07:15:49.018Z,3.77
2019-05-14T07:18:19.051Z,5.22
2019-05-14T07:20:48.566Z,4.67
2019-05-14T07:23:19.380Z,5.70
2019-05-14T07:25:48.351Z,4.80
2019-05-14T07:28:19.305Z,3.85
2019-05-14T07:30:48.514Z,8.00
2019-05-14T07:33:18.473Z,6.83
2019-05-14T07:35:48.866Z,8.35
2019-05-14T07:38:19.557Z,9.60
2019-05-14T07:40:49.447Z,6.17
2019-05-14T07:43:18.872Z,7.10
2019-05-14T07:45:49.212Z,6.08
2019-05-14T07:48:19.044Z,4.80
2019-05-14T07:50:51.753Z,3.87
2019-05-14T07:53:18.273Z,4.75
2019-05-14T07:55:49.062Z,4.12
2019-05-14T07:58:19.667Z,4.12
2019-05-14T08:00:49.224Z,4.87
2019-05-14T08:03:19.052Z,4.12
2019-05-14T08:05:48.302Z,3.67
2019-05-14T08:08:18.794Z,3.47
2019-05-14T08:10:48.754Z,3.83
2019-05-14T08:13:19.044Z,3.22
2019-05-14T08:15:49.018Z,3.27
2019-05-14T08:18:18.830Z,4.08
2019-05-14T08:20:48.643Z,3.08
2019-05-14T08:23:18.425Z,3.50
2019-05-14T08:25:48.090Z,7.05
2019-05-14T08:28:18.448Z,3.30
2019-05-14T08:30:49.100Z,2.87
2019-05-14T08:33:18.441Z,2.70
2019-05-14T08:35:48.836Z,3.02
2019-05-14T08:38:18.476Z,2.90
2019-05-14T08:40:48.934Z,2.92
2019-05-14T08:43:18.492Z,3.35
2019-05-14T08:45:48.799Z,3.37
2019-05-14T08:48:19.020Z,3.37
2019-05-14T08:50:48.273Z,3.20
2019-05-14T08:53:18.599Z,3.25
2019-05-14T08:55:48.815Z,3.33
2019-05-14T08:58:20.160Z,3.20
2019-05-14T09:00:50.390Z,3.15
2019-05-14T09:03:19.376Z,3.12
2019-05-14T09:05:49.360Z,3.33
2019-05-14T09:08:19.201Z,3.00
2019-05-14T09:10:49.689Z,3.22
2019-05-14T09:13:18.648Z,3.60
2019-05-14T09:15:48.897Z,3.60
2019-05-14T09:18:18.427Z,3.25
2019-05-14T09:20:48.790Z,2.92
2019-05-14T09:23:19.021Z,3.15
2019-05-14T09:25:52.792Z,3.37
2019-05-14T09:28:19.491Z,3.40
2019-05-14T09:30:48.764Z,2.95
2019-05-14T09:33:18.937Z,3.37
2019-05-14T09:35:49.273Z,3.27
2019-05-14T09:38:18.947Z,3.72
2019-05-14T09:40:48.880Z,2.95
2019-05-14T09:43:18.199Z,3.00
2019-05-14T09:45:48.205Z,3.55
2019-05-14T09:48:18.128Z,3.42
2019-05-14T09:50:48.941Z,3.47
2019-05-14T09:53:18.177Z,3.87
2019-05-14T09:55:49.056Z,4.10
2019-05-14T09:58:19.944Z,3.60
2019-05-14T10:00:48.609Z,3.90
2019-05-14T10:03:19.165Z,10.30
2019-05-14T10:05:49.999Z,5.10
2019-05-14T10:08:19.299Z,5.42
2019-05-14T10:10:48.836Z,8.68
2019-05-14T10:13:17.788Z,11.10
2019-05-14T10:15:48.532Z,15.72
2019-05-14T10:18:18.834Z,19.80
2019-05-14T10:20:49.429Z,8.28
2019-05-14T10:23:18.951Z,9.10
2019-05-14T10:25:47.774Z,17.35
2019-05-14T10:28:19.050Z,23.07
2019-05-14T10:30:48.924Z,12.07
2019-05-14T10:33:18.097Z,22.77
2019-05-14T10:35:48.432Z,15.45
2019-05-14T10:38:18.940Z,11.90
2019-05-14T10:40:47.979Z,7.60
2019-05-14T10:43:19.306Z,5.25
2019-05-14T10:45:49.225Z,5.03
2019-05-14T10:48:18.586Z,3.87
2019-05-14T10:50:59.064Z,3.08
2019-05-14T10:53:20.351Z,3.83
2019-05-14T10:55:49.363Z,3.45
2019-05-14T10:58:19.584Z,3.20
2019-05-14T11:00:49.523Z,3.20
2019-05-14T11:03:18.682Z,3.12
2019-05-14T11:05:48.563Z,5.12
2019-05-14T11:08:18.898Z,3.67
2019-05-14T11:10:49.729Z,3.10
2019-05-14T11:13:18.988Z,3.62
2019-05-14T11:15:48.652Z,3.47
2019-05-14T11:18:19.595Z,3.00
2019-05-14T11:20:51.379Z,2.98
2019-05-14T11:23:18.626Z,3.22
2019-05-14T11:25:48.694Z,3.70
2019-05-14T11:28:19.142Z,2.90
2019-05-14T11:30:49.532Z,2.83
2019-05-14T11:33:18.831Z,3.22
2019-05-14T11:35:47.697Z,3.00
2019-05-14T11:38:31.752Z,3.15
2019-05-14T11:40:49.490Z,3.20
2019-05-14T11:43:18.597Z,3.00
2019-05-14T11:45:48.507Z,3.35
2019-05-14T11:48:19.281Z,7.37
2019-05-14T11:50:49.107Z,3.67
2019-05-14T11:53:20.324Z,3.08
2019-05-14T11:55:50.384Z,3.50
2019-05-14T11:58:21.256Z,3.33
2019-05-14T12:00:49.710Z,3.20
2019-05-14T12:03:19.596Z,3.50
2019-05-14T12:05:49.369Z,3.60
2019-05-14T12:08:18.736Z,4.20
2019-05-14T12:10:47.512Z,3.20
2019-05-14T12:13:19.401Z,3.37
2019-05-14T12:15:48.733Z,4.90
2019-05-14T12:18:18.590Z,3.45
2019-05-14T12:20:49.676Z,4.12
2019-05-14T12:23:19.161Z,3.77
2019-05-14T12:25:49.107Z,3.70
2019-05-14T12:28:19.158Z,3.70
2019-05-14T12:30:48.969Z,3.25
2019-05-14T12:33:19.744Z,3.62
2019-05-14T12:35:49.503Z,3.27
2019-05-14T12:38:19.501Z,3.50
2019-05-14T12:40:48.271Z,3.33
2019-05-14T12:43:18.772Z,7.22
2019-05-14T12:45:47.258Z,3.92
2019-05-14T12:48:18.555Z,3.60
2019-05-14T12:50:48.667Z,3.00
2019-05-14T12:53:19.702Z,3.25
2019-05-14T12:55:48.737Z,3.10
2019-05-14T12:58:20.154Z,3.30
2019-05-14T13:00:48.728Z,3.20
2019-05-14T13:03:19.018Z,3.58
2019-05-14T13:05:49.174Z,3.33
2019-05-14T13:08:18.497Z,3.20
2019-05-14T13:10:49.250Z,3.55
2019-05-14T13:13:19.742Z,3.90
2019-05-14T13:15:50.582Z,3.80
2019-05-14T13:18:19.513Z,7.20
2019-05-14T13:20:48.295Z,4.78
2019-05-14T13:23:18.426Z,3.42
2019-05-14T13:25:47.442Z,3.42
2019-05-14T13:28:16.131Z,3.55
2019-05-14T13:30:48.695Z,3.60
2019-05-14T13:33:19.064Z,3.50
2019-05-14T13:35:48.429Z,3.70
2019-05-14T13:38:17.256Z,3.42
2019-05-14T13:40:48.887Z,3.40
2019-05-14T13:43:19.074Z,5.40
2019-05-14T13:45:49.372Z,3.90
2019-05-14T13:48:18.819Z,5.90
2019-05-14T13:50:49.082Z,6.92
2019-05-14T13:53:18.870Z,6.33
2019-05-14T13:55:56.777Z,3.92
2019-05-14T13:58:20.801Z,3.67
2019-05-14T14:00:52.218Z,3.58
2019-05-14T14:03:20.344Z,4.70
2019-05-14T14:05:49.928Z,3.50
2019-05-14T14:08:19.322Z,3.45
2019-05-14T14:10:53.731Z,9.75
2019-05-14T14:13:19.768Z,6.85
2019-05-14T14:15:49.115Z,3.90
2019-05-14T14:18:20.905Z,4.85
2019-05-14T14:20:49.314Z,4.62
2019-05-14T14:23:25.627Z,3.20
2019-05-14T14:25:53.444Z,4.00
2019-05-14T14:28:18.800Z,3.42
2019-05-14T14:30:49.205Z,3.77
2019-05-14T14:33:18.620Z,4.10
2019-05-14T14:35:48.644Z,4.12
2019-05-14T14:38:20.007Z,4.25
2019-05-14T14:40:48.759Z,3.60
2019-05-14T14:43:18.798Z,5.45
2019-05-14T14:45:50.838Z,8.50
2019-05-14T14:48:20.420Z,6.83
2019-05-14T14:50:49.976Z,7.35
2019-05-14T14:53:21.858Z,5.10
2019-05-14T14:55:49.937Z,6.60
2019-05-14T14:58:20.051Z,4.22
2019-05-14T15:00:49.101Z,4.05
2019-05-14T15:03:21.150Z,4.10
2019-05-14T15:05:49.831Z,4.28
2019-05-14T15:08:20.076Z,3.33
2019-05-14T15:10:50.172Z,3.52
2019-05-14T15:13:20.439Z,3.47
2019-05-14T15:15:49.875Z,4.95
2019-05-14T15:18:18.838Z,4.08
2019-05-14T15:20:48.867Z,3.90
2019-05-14T15:23:19.330Z,3.55
2019-05-14T15:25:48.262Z,3.52
2019-05-14T15:28:18.954Z,4.78
2019-05-14T15:30:49.859Z,3.70
2019-05-14T15:33:18.897Z,4.05
2019-05-14T15:35:49.057Z,7.97
2019-05-14T15:38:18.076Z,12.98
2019-05-14T15:40:48.782Z,6.72
2019-05-14T15:43:21.845Z,4.47
2019-05-14T15:45:50.537Z,4.35
2019-05-14T15:48:19.981Z,3.70
2019-05-14T15:50:50.193Z,9.50
2019-05-14T15:53:19.540Z,17.50
2019-05-14T15:55:51.669Z,22.35
2019-05-14T15:58:21.837Z,7.80
2019-05-14T16:00:50.571Z,11.45
2019-05-14T16:03:22.474Z,38.55
2019-05-14T16:05:51.162Z,25.57
2019-05-14T16:11:49.301Z,30.90
2019-05-14T16:27:08.405Z,7.72
2019-05-14T16:32:56.081Z,3.75
2019-05-14T16:35:25.782Z,3.30
2019-05-14T16:37:54.445Z,3.70
2019-05-14T16:40:23.154Z,4.15
2019-05-14T16:42:51.847Z,3.10
2019-05-14T16:45:20.630Z,3.10
2019-05-14T16:47:49.301Z,3.60
2019-05-14T16:50:19.079Z,14.75
2019-05-14T16:52:49.413Z,10.70
2019-05-14T16:55:24.497Z,31.10
2019-05-14T16:57:49.422Z,22.80
2019-05-14T17:00:19.421Z,28.32
2019-05-14T17:02:52.799Z,10.93
2019-05-14T17:08:54.706Z,3.55
2019-05-14T17:11:48.099Z,5.12
2019-05-14T17:14:18.385Z,4.40
2019-05-14T17:16:49.099Z,3.47
2019-05-14T17:19:18.827Z,3.55
2019-05-14T17:21:48.696Z,5.60
2019-05-14T17:24:20.091Z,5.83
2019-05-14T17:26:48.895Z,6.03
2019-05-14T17:29:19.197Z,4.83
2019-05-14T17:31:49.333Z,5.03
2019-05-14T17:34:20.008Z,6.60
2019-05-14T17:36:49.696Z,6.37
2019-05-14T17:39:18.824Z,6.90
2019-05-14T17:41:48.505Z,8.58
2019-05-14T17:44:22.327Z,6.47
2019-05-14T17:46:51.046Z,5.25
2019-05-14T17:49:19.772Z,5.05
2019-05-14T17:51:49.602Z,6.80
2019-05-14T17:54:18.691Z,5.00
2019-05-14T17:56:48.635Z,4.53
2019-05-14T17:59:19.067Z,4.37
2019-05-14T18:01:48.033Z,4.53
2019-05-14T18:04:19.413Z,4.10
2019-05-14T18:06:48.862Z,4.90
2019-05-14T18:09:19.777Z,4.12
2019-05-14T18:11:49.159Z,4.10
2019-05-14T18:14:19.039Z,5.22
2019-05-14T18:16:47.975Z,4.00
2019-05-14T18:19:18.355Z,4.35
2019-05-14T18:21:48.804Z,4.75
2019-05-14T18:24:18.943Z,4.70
2019-05-14T18:26:48.093Z,4.50
2019-05-14T18:29:18.923Z,4.50
2019-05-14T18:34:51.581Z,6.65
2019-05-14T18:41:01.597Z,5.78
2019-05-14T18:47:11.320Z,7.92
2019-05-14T18:53:21.139Z,6.30
2019-05-14T18:55:49.825Z,5.17
2019-05-14T18:58:20.670Z,3.40
2019-05-14T19:00:49.352Z,4.35
2019-05-14T19:03:19.805Z,5.33
2019-05-14T19:05:48.398Z,5.92
2019-05-14T19:08:17.926Z,4.92
2019-05-14T19:10:49.600Z,4.37
2019-05-14T19:13:19.521Z,4.00
2019-05-14T19:15:48.379Z,3.98
2019-05-14T19:18:19.196Z,3.95
2019-05-14T19:20:48.642Z,3.40
2019-05-14T19:23:18.801Z,3.58
2019-05-14T19:25:48.353Z,3.95
2019-05-14T19:28:18.717Z,3.30
2019-05-14T19:30:50.261Z,4.35
2019-05-14T19:33:20.562Z,3.17
2019-05-14T19:35:51.921Z,3.72
2019-05-14T19:38:20.609Z,4.35
2019-05-14T19:40:49.287Z,4.05
2019-05-14T19:43:19.110Z,3.90
2019-05-14T19:45:48.846Z,4.30
2019-05-14T19:48:18.891Z,4.47
2019-05-14T19:50:49.063Z,3.87
2019-05-14T19:53:18.046Z,4.92
2019-05-14T19:55:48.590Z,4.65
2019-05-14T19:58:20.279Z,2.77
2019-05-14T20:00:48.972Z,2.83
2019-05-14T20:03:18.803Z,3.02
2019-05-14T20:05:48.639Z,4.42
2019-05-14T20:08:18.903Z,5.05
2019-05-14T20:10:48.986Z,6.30
2019-05-14T20:13:19.388Z,5.45
2019-05-14T20:15:48.833Z,6.40
2019-05-14T20:18:17.751Z,5.87
2019-05-14T20:20:46.427Z,5.53
2019-05-14T20:23:15.104Z,10.25
2019-05-14T20:25:43.790Z,7.30
2019-05-14T20:28:12.477Z,7.15
2019-05-14T20:30:41.141Z,5.08
2019-05-14T20:33:09.815Z,8.13
2019-05-14T20:35:38.504Z,6.08
2019-05-14T20:38:09.027Z,7.15
2019-05-14T20:40:37.972Z,4.97
2019-05-14T20:43:07.078Z,6.12
2019-05-14T20:45:35.732Z,5.00
2019-05-14T20:48:05.415Z,5.05
2019-05-14T20:50:34.087Z,6.05
2019-05-14T20:53:02.814Z,4.55
2019-05-14T20:55:31.481Z,7.40
2019-05-14T20:58:00.143Z,7.42
2019-05-14T21:00:29.419Z,12.33
2019-05-14T21:02:59.541Z,12.37
2019-05-14T21:05:28.815Z,14.05
2019-05-14T21:07:59.028Z,13.53
2019-05-14T21:10:29.186Z,12.80
2019-05-14T21:12:58.383Z,13.78
2019-05-14T21:15:28.552Z,5.95
2019-05-14T21:17:59.714Z,9.60
2019-05-14T21:20:28.365Z,12.23
2019-05-14T21:22:58.466Z,7.10
2019-05-14T21:25:29.331Z,9.10
2019-05-14T21:27:58.764Z,9.15
2019-05-14T21:30:29.539Z,5.25
2019-05-14T21:33:00.140Z,5.05
2019-05-14T21:35:29.167Z,5.20
2019-05-14T21:37:59.282Z,12.98
2019-05-14T21:40:29.116Z,9.20
2019-05-14T21:42:58.633Z,7.72
2019-05-14T21:45:27.309Z,7.08
2019-05-14T21:47:59.216Z,12.50
2019-05-14T21:50:28.897Z,5.85
2019-05-14T21:52:59.632Z,4.12
2019-05-14T21:55:28.859Z,4.35
2019-05-14T21:57:57.768Z,3.92
2019-05-14T22:00:41.383Z,3.70
2019-05-14T22:03:09.764Z,3.45
2019-05-14T22:05:39.102Z,3.20
2019-05-14T22:08:08.852Z,3.60
2019-05-14T22:10:39.591Z,3.30
2019-05-14T22:13:07.954Z,3.08
2019-05-14T22:15:38.885Z,3.52
2019-05-14T22:18:16.537Z,3.42
2019-05-14T22:20:38.533Z,3.05
2019-05-14T22:23:08.884Z,3.20
2019-05-14T22:25:39.389Z,3.67
2019-05-14T22:28:14.998Z,3.77
2019-05-14T22:30:38.964Z,3.67
2019-05-14T22:33:08.725Z,3.30
2019-05-14T22:35:39.633Z,3.40
2019-05-14T22:38:08.228Z,3.20
2019-05-14T22:40:39.015Z,3.05
2019-05-14T22:43:09.214Z,2.77
2019-05-14T22:45:37.720Z,6.47
2019-05-14T22:48:06.418Z,4.50
2019-05-14T22:50:35.098Z,2.95
2019-05-14T22:53:04.046Z,3.30
2019-05-14T22:55:32.738Z,3.10
2019-05-14T22:58:01.407Z,3.05
2019-05-14T23:00:31.023Z,3.40
2019-05-14T23:02:59.690Z,3.20
2019-05-14T23:05:29.025Z,3.50
2019-05-14T23:07:58.469Z,4.03
2019-05-14T23:10:27.346Z,3.45
2019-05-14T23:12:58.398Z,3.30
2019-05-14T23:15:28.833Z,3.72
2019-05-14T23:17:58.685Z,3.85
2019-05-14T23:20:29.031Z,3.47
2019-05-14T23:22:58.391Z,3.02
2019-05-14T23:25:29.201Z,3.42
2019-05-14T23:27:58.909Z,3.72
2019-05-14T23:30:32.574Z,3.30
2019-05-14T23:33:01.259Z,3.90
2019-05-14T23:35:30.632Z,3.98
2019-05-14T23:37:59.362Z,3.90
2019-05-14T23:40:28.913Z,3.95
2019-05-14T23:42:58.776Z,4.03
2019-05-14T23:45:28.446Z,4.08
2019-05-14T23:47:58.709Z,4.15
2019-05-14T23:50:28.361Z,4.03
2019-05-14T23:52:59.864Z,4.30
2019-05-14T23:55:28.909Z,4.05
2019-05-14T23:57:58.692Z,4.80
